createdAt,value
2017-09-15T08:09:20.660Z,669.38
2017-09-15T08:10:20.589Z,911.25
2017-09-15T08:11:38.534Z,1096.88
2017-09-15T08:11:39.375Z,1113.75
2017-09-15T08:11:40.186Z,1102.50
2017-09-15T08:11:41.006Z,1130.63
2017-09-15T08:11:41.826Z,1164.38
2017-09-15T08:11:42.695Z,1175.63
2017-09-15T08:11:43.505Z,1220.63
2017-09-15T08:11:44.305Z,1254.38
2017-09-15T08:11:45.114Z,1237.50
2017-09-15T08:11:45.945Z,1175.63
2017-09-15T08:11:46.826Z,1220.63
2017-09-15T08:43:57.346Z,922.50
2017-09-15T08:43:57.920Z,911.25
2017-09-15T08:43:58.740Z,894.38
2017-09-15T08:43:59.542Z,905.63
2017-09-15T08:44:00.338Z,922.50
2017-09-15T08:44:01.142Z,916.88
2017-09-15T08:44:01.956Z,939.38
2017-09-15T08:44:02.772Z,933.75
2017-09-15T08:44:03.590Z,855.00
2017-09-15T08:44:04.421Z,1068.75
2017-09-15T08:44:05.178Z,1231.88
2017-09-15T08:44:05.980Z,1254.38
2017-09-15T08:44:06.784Z,1220.63
2017-09-15T08:45:24.622Z,1220.63
2017-09-15T08:45:25.458Z,1226.25
2017-09-15T08:46:02.429Z,1203.75
2017-09-15T08:48:18.060Z,2671.88
2017-09-15T08:48:19.018Z,1738.13
2017-09-15T08:48:55.027Z,3110.63
2017-09-15T08:48:55.618Z,3099.38
2017-09-15T08:50:10.628Z,2925.00
2017-09-15T08:50:11.426Z,984.38
2017-09-15T08:50:12.247Z,928.13
2017-09-15T08:50:13.075Z,911.25
2017-09-15T08:50:13.944Z,928.13
2017-09-15T08:50:14.757Z,911.25
2017-09-15T08:50:15.578Z,2801.25
2017-09-15T08:50:16.436Z,990.00
2017-09-15T08:50:17.219Z,956.25
2017-09-15T08:50:18.077Z,967.50
2017-09-15T08:50:18.876Z,995.63
2017-09-15T08:50:19.968Z,1006.88
2017-09-15T08:50:20.468Z,973.13
2017-09-15T08:50:53.162Z,1890.00
2017-09-15T08:50:54.072Z,1665.00
2017-09-15T08:51:32.830Z,3099.38
2017-09-15T08:52:02.560Z,1293.75
2017-09-15T08:52:45.586Z,483.75
2017-09-15T08:52:46.158Z,1068.75
2017-09-15T08:52:46.948Z,1147.50
2017-09-15T08:52:47.569Z,1158.75
2017-09-15T08:52:48.337Z,1136.25
2017-09-15T08:52:49.259Z,1125.00
2017-09-15T08:52:51.858Z,1125.00
2017-09-15T08:52:53.537Z,1108.13
2017-09-15T08:52:54.258Z,1096.88
2017-09-15T08:52:54.908Z,1096.88
2017-09-15T08:54:35.525Z,956.25
2017-09-15T08:54:36.488Z,1035.00
2017-09-15T08:55:11.174Z,838.13
2017-09-15T08:55:11.936Z,855.00
2017-09-15T08:55:48.133Z,911.25
2017-09-15T08:55:48.952Z,1046.25
2017-09-15T08:56:52.540Z,883.13
2017-09-15T08:56:53.170Z,883.13
2017-09-15T08:57:50.299Z,1141.88
2017-09-15T08:57:50.430Z,1158.75
2017-09-15T08:57:51.010Z,1164.38
2017-09-15T08:57:51.488Z,1147.50
2017-09-15T08:57:52.049Z,1141.88
2017-09-15T08:57:52.572Z,1136.25
2017-09-15T08:57:53.114Z,1125.00
2017-09-15T08:57:53.682Z,1125.00
2017-09-15T08:57:54.211Z,1147.50
2017-09-15T08:57:54.761Z,1147.50
2017-09-15T08:57:55.307Z,1141.88
2017-09-15T08:57:55.825Z,1130.63
2017-09-15T08:57:56.365Z,1130.63
2017-09-15T08:57:56.913Z,1130.63
2017-09-15T08:57:57.436Z,1141.88
2017-09-15T08:57:57.957Z,1153.13
2017-09-15T08:57:58.483Z,1170.00
2017-09-15T08:57:59.030Z,1158.75
2017-09-15T08:57:59.738Z,1125.00
2017-09-15T08:58:37.096Z,618.75
2017-09-15T08:58:37.332Z,686.25
2017-09-15T08:58:37.760Z,877.50
2017-09-15T08:59:16.023Z,2036.25
2017-09-15T08:59:58.706Z,1091.25
2017-09-15T08:59:58.818Z,1080.00
2017-09-15T09:00:37.416Z,765.00
2017-09-15T09:00:37.521Z,765.00
2017-09-15T09:01:14.284Z,1305.00
2017-09-15T09:01:14.824Z,1293.75
2017-09-15T09:01:15.508Z,1288.13
2017-09-15T09:01:51.842Z,1237.50
2017-09-15T09:01:51.958Z,1237.50
2017-09-15T09:01:52.477Z,1226.25
2017-09-15T09:02:29.849Z,1209.38
2017-09-15T09:02:29.966Z,1215.00
2017-09-15T09:02:30.479Z,1215.00
2017-09-15T09:05:46.168Z,843.75
2017-09-15T09:05:46.687Z,810.00
2017-09-15T09:05:47.217Z,804.38
2017-09-15T09:07:25.958Z,866.25
2017-09-15T09:07:26.160Z,967.50
2017-09-15T09:07:26.555Z,956.25
2017-09-15T09:11:43.347Z,0.00
2017-09-15T09:11:43.854Z,0.00
2017-09-15T09:11:44.405Z,0.00
2017-09-15T09:11:44.855Z,0.00
2017-09-15T09:11:45.377Z,0.00
2017-09-15T09:11:45.824Z,0.00
2017-09-15T09:11:46.485Z,0.00
2017-09-15T09:11:47.017Z,0.00
2017-09-15T09:11:47.335Z,0.00
2017-09-15T09:11:47.827Z,0.00
2017-09-15T09:11:48.388Z,0.00
2017-09-15T09:11:48.916Z,0.00
2017-09-15T09:11:49.606Z,0.00
2017-09-15T09:11:49.998Z,0.00
2017-09-15T09:11:50.617Z,0.00
2017-09-15T09:11:51.304Z,0.00
2017-09-15T09:12:26.983Z,0.00
2017-09-15T09:12:27.500Z,0.00
2017-09-15T09:13:13.405Z,0.00
2017-09-15T09:14:43.109Z,0.00
2017-09-15T09:14:43.563Z,0.00
2017-09-15T09:14:44.067Z,0.00
2017-09-15T09:14:44.583Z,0.00
2017-09-15T09:14:51.553Z,0.00
2017-09-15T09:14:53.167Z,0.00
2017-09-15T09:14:53.226Z,0.00
2017-09-15T09:14:53.886Z,0.00
2017-09-15T09:14:54.356Z,0.00
2017-09-15T09:14:54.828Z,0.00
2017-09-15T09:14:55.368Z,0.00
2017-09-15T09:14:56.008Z,0.00
2017-09-15T09:14:56.446Z,0.00
2017-09-15T09:14:56.986Z,0.00
2017-09-15T09:15:03.778Z,0.00
2017-09-15T09:15:03.861Z,0.00
2017-09-15T09:15:04.443Z,0.00
2017-09-15T09:15:04.975Z,0.00
2017-09-15T09:15:05.574Z,0.00
2017-09-15T09:15:06.016Z,0.00
2017-09-15T09:15:06.573Z,0.00
2017-09-15T09:15:07.109Z,0.00
2017-09-15T09:15:07.651Z,0.00
2017-09-15T09:15:08.217Z,0.00
2017-09-15T09:15:08.719Z,0.00
2017-09-15T09:15:09.119Z,0.00
2017-09-15T09:15:09.665Z,0.00
2017-09-15T09:15:10.235Z,0.00
2017-09-15T09:15:10.769Z,0.00
2017-09-15T09:15:11.343Z,0.00
2017-09-15T09:15:11.976Z,0.00
2017-09-15T09:15:12.372Z,0.00
2017-09-15T09:15:12.935Z,0.00
2017-09-15T09:15:13.487Z,0.00
2017-09-15T09:15:13.983Z,0.00
2017-09-15T09:15:14.539Z,0.00
2017-09-15T09:15:15.096Z,0.00
2017-09-15T09:15:15.641Z,0.00
2017-09-15T09:15:16.161Z,0.00
2017-09-15T09:15:16.679Z,0.00
2017-09-15T09:15:17.217Z,0.00
2017-09-15T09:15:17.747Z,0.00
2017-09-15T09:15:18.308Z,0.00
2017-09-15T09:15:18.831Z,0.00
2017-09-15T09:15:19.398Z,0.00
2017-09-15T09:15:19.936Z,0.00
2017-09-15T09:15:20.492Z,0.00
2017-09-15T09:15:21.037Z,0.00
2017-09-15T09:15:21.559Z,0.00
2017-09-15T09:15:22.103Z,0.00
2017-09-15T09:15:22.629Z,0.00
2017-09-15T09:15:23.161Z,0.00
2017-09-15T09:15:23.711Z,0.00
2017-09-15T09:15:24.237Z,0.00
2017-09-15T09:15:24.763Z,0.00
2017-09-15T09:15:25.307Z,0.00
2017-09-15T09:15:25.847Z,0.00
2017-09-15T09:15:26.387Z,0.00
2017-09-15T09:15:26.903Z,0.00
2017-09-15T09:15:27.442Z,0.00
2017-09-15T09:15:27.985Z,0.00
2017-09-15T09:15:28.520Z,0.00
2017-09-15T09:15:29.060Z,0.00
2017-09-15T09:15:29.599Z,0.00
2017-09-15T09:15:30.159Z,0.00
2017-09-15T09:15:30.723Z,0.00
2017-09-15T09:15:31.261Z,0.00
2017-09-15T09:15:31.807Z,0.00
2017-09-15T09:15:32.334Z,0.00
2017-09-15T09:15:32.880Z,0.00
2017-09-15T09:15:33.415Z,0.00
2017-09-15T09:15:33.958Z,0.00
2017-09-15T09:15:34.774Z,0.00
2017-09-15T09:15:35.318Z,0.00
2017-09-15T09:15:35.859Z,0.00
2017-09-15T09:15:36.413Z,0.00
2017-09-15T09:15:36.930Z,0.00
2017-09-15T09:16:16.193Z,0.00
2017-09-15T09:16:16.859Z,0.00
2017-09-15T09:17:04.055Z,0.00
2017-09-15T09:17:56.836Z,0.00
2017-09-15T09:17:57.383Z,0.00
2017-09-15T09:17:58.104Z,0.00
2017-09-15T09:17:58.420Z,0.00
2017-09-15T09:17:58.954Z,0.00
2017-09-15T09:17:59.494Z,0.00
2017-09-15T09:18:00.052Z,0.00
2017-09-15T09:18:00.608Z,0.00
2017-09-15T09:18:01.176Z,0.00
2017-09-15T09:18:01.723Z,0.00
2017-09-15T09:18:38.154Z,0.00
2017-09-15T09:18:38.277Z,0.00
